Time;durP1;ratioP1;P1;durP2;ratioP2;P2;SDS_P1;SDS_P2;PMS_P1;PMS_P2;Temp;Humidity;BMP_temperature;BMP_pressure;BME280_temperature;BME280_humidity;BME280_pressure;Samples;Min_cycle;Max_cycle;Signal;HPM_P1;HPM_P2
2021/06/16 00:01:52;;;;;;;;;;;23.50;58.70;;;;;;5093679;28;20291;-57
2021/06/16 00:04:17;;;;;;;;;;;23.50;58.50;;;;;;5078590;28;19985;-57
2021/06/16 00:06:43;;;;;;;;;;;23.50;58.50;;;;;;5090098;28;19915;-62
2021/06/16 00:09:08;;;;;;;;;;;23.50;58.50;;;;;;5091861;28;19927;-62
2021/06/16 00:11:34;;;;;;;;;;;23.50;58.50;;;;;;5097077;28;19927;-62
2021/06/16 00:14:00;;;;;;;;;;;23.50;58.50;;;;;;5098526;28;19935;-60
2021/06/16 00:16:25;;;;;;;;;;;23.50;58.50;;;;;;5097163;28;20505;-61
2021/06/16 00:18:51;;;;;;;;;;;23.50;58.50;;;;;;5101066;28;19916;-60
2021/06/16 00:21:16;;;;;;;;;;;23.50;58.40;;;;;;5096353;28;19924;-61
2021/06/16 00:23:42;;;;;;;;;;;23.50;58.40;;;;;;5072245;28;19926;-61
2021/06/16 00:26:08;;;;;;;;;;;23.50;58.40;;;;;;5092442;28;19920;-61
2021/06/16 00:28:33;;;;;;;;;;;23.50;58.40;;;;;;5092803;28;19923;-61
2021/06/16 00:30:58;;;;;;;;;;;23.50;58.40;;;;;;5100122;28;19916;-61
2021/06/16 00:33:24;;;;;;;;;;;23.50;58.40;;;;;;5099449;28;19931;-61
2021/06/16 00:35:49;;;;;;;;;;;23.50;58.40;;;;;;5069967;28;20295;-61
2021/06/16 00:38:15;;;;;;;;;;;23.50;58.30;;;;;;5101074;28;19923;-63
2021/06/16 00:40:40;;;;;;;;;;;23.50;58.40;;;;;;5099330;28;20426;-61
2021/06/16 00:43:06;;;;;;;;;;;23.50;58.30;;;;;;5095249;28;19916;-61
2021/06/16 00:45:31;;;;;;;;;;;23.50;58.30;;;;;;5099053;28;19923;-61
2021/06/16 00:47:57;;;;;;;;;;;23.50;58.30;;;;;;5102319;28;19923;-61
2021/06/16 00:50:29;;;;;;;;;;;23.50;58.30;;;;;;5096705;28;20312;-62
2021/06/16 00:52:54;;;;;;;;;;;23.50;58.30;;;;;;5099545;28;20273;-63
2021/06/16 00:55:20;;;;;;;;;;;23.50;58.30;;;;;;5093612;28;19916;-63
2021/06/16 00:57:45;;;;;;;;;;;23.50;58.20;;;;;;5065387;28;19916;-64
2021/06/16 01:00:12;;;;;;;;;;;23.50;58.20;;;;;;5064923;28;19916;-63
2021/06/16 01:02:49;;;;;;;;;;;23.50;58.20;;;;;;5090240;28;19916;-62
2021/06/16 01:05:16;;;;;;;;;;;23.50;58.20;;;;;;5090142;28;20742;-60
2021/06/16 01:07:42;;;;;;;;;;;23.50;58.20;;;;;;5065961;28;20522;-63
2021/06/16 01:10:08;;;;;;;;;;;23.50;58.20;;;;;;5066821;28;19916;-62
2021/06/16 01:12:52;;;;;;;;;;;23.50;58.20;;;;;;5099834;28;20354;-60
2021/06/16 01:15:19;;;;;;;;;;;23.50;58.20;;;;;;5094213;28;19951;-61
2021/06/16 01:17:45;;;;;;;;;;;23.50;58.20;;;;;;5096772;28;19959;-62
2021/06/16 01:20:17;;;;;;;;;;;23.50;58.20;;;;;;5065152;28;19974;-61
2021/06/16 01:22:44;;;;;;;;;;;23.50;58.20;;;;;;5096305;28;19916;-62
2021/06/16 01:25:30;;;;;;;;;;;23.50;58.10;;;;;;5068904;28;19916;-61
2021/06/16 01:27:56;;;;;;;;;;;23.50;58.10;;;;;;5095226;28;20010;-63
2021/06/16 01:30:22;;;;;;;;;;;23.50;58.00;;;;;;5066069;28;20007;-62
2021/06/16 01:32:48;;;;;;;;;;;23.50;58.00;;;;;;5093145;28;19920;-63
2021/06/16 01:35:13;;;;;;;;;;;23.50;58.00;;;;;;5095059;28;20683;-63
2021/06/16 01:37:39;;;;;;;;;;;23.50;58.00;;;;;;5086269;28;19930;-63
2021/06/16 01:40:05;;;;;;;;;;;23.50;58.00;;;;;;5093148;28;20007;-63
2021/06/16 01:42:30;;;;;;;;;;;23.50;58.00;;;;;;5094703;28;20269;-63
2021/06/16 01:44:56;;;;;;;;;;;23.50;58.00;;;;;;5067651;28;19916;-63
2021/06/16 01:47:22;;;;;;;;;;;23.50;57.90;;;;;;5066158;28;19916;-62
2021/06/16 01:49:47;;;;;;;;;;;23.50;57.90;;;;;;5066507;28;19920;-63
2021/06/16 01:52:13;;;;;;;;;;;23.50;58.00;;;;;;5064804;28;20374;-63
2021/06/16 01:54:38;;;;;;;;;;;23.50;58.00;;;;;;5098343;28;19924;-63
2021/06/16 01:57:04;;;;;;;;;;;23.50;57.90;;;;;;5067304;28;19967;-63
2021/06/16 01:59:29;;;;;;;;;;;23.50;58.00;;;;;;5062815;28;20274;-63
2021/06/16 02:01:55;;;;;;;;;;;23.50;58.00;;;;;;5064613;28;19916;-65
2021/06/16 02:04:20;;;;;;;;;;;23.50;58.00;;;;;;5063744;28;19970;-64
2021/06/16 02:06:49;;;;;;;;;;;23.50;58.00;;;;;;5070691;28;19916;-62
2021/06/16 02:09:15;;;;;;;;;;;23.50;58.00;;;;;;5076632;28;21362;-63
2021/06/16 02:11:41;;;;;;;;;;;23.50;57.90;;;;;;5062250;28;19920;-61
2021/06/16 02:14:07;;;;;;;;;;;23.50;58.00;;;;;;5090266;28;20019;-63
2021/06/16 02:16:36;;;;;;;;;;;23.50;57.90;;;;;;5078625;28;20007;-61
2021/06/16 02:19:03;;;;;;;;;;;23.50;57.90;;;;;;5048268;28;20362;-62
2021/06/16 02:21:29;;;;;;;;;;;23.50;57.80;;;;;;5077222;28;19927;-62
2021/06/16 02:23:54;;;;;;;;;;;23.50;57.80;;;;;;5067323;28;19924;-60
2021/06/16 02:26:21;;;;;;;;;;;23.50;57.80;;;;;;5065488;28;19922;-64
2021/06/16 02:28:46;;;;;;;;;;;23.50;57.80;;;;;;5087220;28;19920;-61
2021/06/16 02:31:12;;;;;;;;;;;23.50;57.90;;;;;;5094040;28;20292;-62
2021/06/16 02:33:37;;;;;;;;;;;23.50;57.80;;;;;;5084938;28;19962;-63
2021/06/16 02:36:03;;;;;;;;;;;23.50;57.80;;;;;;5065528;28;19923;-63
2021/06/16 02:38:29;;;;;;;;;;;23.50;57.80;;;;;;5067852;28;20395;-63
2021/06/16 02:40:55;;;;;;;;;;;23.50;57.80;;;;;;5093709;28;19916;-62
2021/06/16 02:43:21;;;;;;;;;;;23.50;57.80;;;;;;5065284;28;20089;-62
2021/06/16 02:45:47;;;;;;;;;;;23.50;57.80;;;;;;5082644;28;20703;-63
2021/06/16 02:48:12;;;;;;;;;;;23.50;57.80;;;;;;5064468;28;19916;-63
2021/06/16 02:50:38;;;;;;;;;;;23.50;57.80;;;;;;5092489;22;19930;-60
2021/06/16 02:53:07;;;;;;;;;;;23.50;57.80;;;;;;5043518;28;19927;-58
2021/06/16 02:55:32;;;;;;;;;;;23.50;57.80;;;;;;5041216;28;20004;-60
2021/06/16 02:57:58;;;;;;;;;;;23.50;57.80;;;;;;5023595;28;20016;-60
2021/06/16 03:00:23;;;;;;;;;;;23.50;57.80;;;;;;5039824;28;19921;-62
2021/06/16 03:02:49;;;;;;;;;;;23.50;57.80;;;;;;5041129;28;20470;-60
2021/06/16 03:05:24;;;;;;;;;;;23.50;57.80;;;;;;5019279;28;19924;-60
2021/06/16 03:07:53;;;;;;;;;;;23.50;57.80;;;;;;5042297;28;19921;-60
2021/06/16 03:10:18;;;;;;;;;;;23.50;57.80;;;;;;5039723;28;19921;-60
2021/06/16 03:12:46;;;;;;;;;;;23.50;57.80;;;;;;5041831;28;19921;-61
2021/06/16 03:15:11;;;;;;;;;;;23.50;57.80;;;;;;5025420;28;19956;-60
2021/06/16 03:17:37;;;;;;;;;;;23.50;57.80;;;;;;5041184;28;20405;-61
2021/06/16 03:20:03;;;;;;;;;;;23.50;57.80;;;;;;5022628;28;19917;-61
2021/06/16 03:22:28;;;;;;;;;;;23.50;57.80;;;;;;5040143;28;20010;-61
2021/06/16 03:24:54;;;;;;;;;;;23.50;57.70;;;;;;5022051;28;20013;-59
2021/06/16 03:27:22;;;;;;;;;;;23.50;57.80;;;;;;5040813;28;19924;-59
2021/06/16 03:29:49;;;;;;;;;;;23.50;57.80;;;;;;5005130;28;19917;-60
2021/06/16 03:32:15;;;;;;;;;;;23.50;57.80;;;;;;5021904;28;20466;-62
2021/06/16 03:34:40;;;;;;;;;;;23.50;57.80;;;;;;5021285;28;19921;-61
2021/06/16 03:37:07;;;;;;;;;;;23.50;57.80;;;;;;5022455;28;20022;-58
2021/06/16 03:39:32;;;;;;;;;;;23.50;57.80;;;;;;5021426;28;19924;-60
2021/06/16 03:41:58;;;;;;;;;;;23.50;57.80;;;;;;5022851;28;19917;-59
2021/06/16 03:44:24;;;;;;;;;;;23.50;57.80;;;;;;5026284;28;19921;-61
2021/06/16 03:46:49;;;;;;;;;;;23.50;57.80;;;;;;5025399;28;19925;-58
2021/06/16 03:49:15;;;;;;;;;;;23.50;57.80;;;;;;5043751;28;20621;-59
2021/06/16 03:51:41;;;;;;;;;;;23.50;57.80;;;;;;5025101;28;19970;-60
2021/06/16 03:54:11;;;;;;;;;;;23.50;57.80;;;;;;5043818;28;19917;-60
2021/06/16 03:56:40;;;;;;;;;;;23.50;57.80;;;;;;5025934;28;20017;-61
2021/06/16 03:59:06;;;;;;;;;;;23.50;57.80;;;;;;5026899;28;19917;-60
2021/06/16 04:01:31;;;;;;;;;;;23.50;57.80;;;;;;5042337;28;19923;-59
2021/06/16 04:03:57;;;;;;;;;;;23.50;57.80;;;;;;5043387;28;19923;-60
2021/06/16 04:06:22;;;;;;;;;;;23.50;57.80;;;;;;5042477;28;19924;-60
2021/06/16 04:08:48;;;;;;;;;;;23.50;57.70;;;;;;5025311;28;19928;-61
2021/06/16 04:11:13;;;;;;;;;;;23.50;57.80;;;;;;5022708;28;19921;-59
2021/06/16 04:13:39;;;;;;;;;;;23.50;57.80;;;;;;5024039;28;20374;-62
2021/06/16 04:16:04;;;;;;;;;;;23.50;57.80;;;;;;5026311;28;19960;-59
2021/06/16 04:18:32;;;;;;;;;;;23.50;57.80;;;;;;5042600;28;19924;-62
2021/06/16 04:20:57;;;;;;;;;;;23.50;57.80;;;;;;5008142;28;20011;-60
2021/06/16 04:23:23;;;;;;;;;;;23.50;57.90;;;;;;5025878;28;19921;-59
2021/06/16 04:25:48;;;;;;;;;;;23.50;57.90;;;;;;5042210;28;19917;-61
2021/06/16 04:28:14;;;;;;;;;;;23.50;57.90;;;;;;5043594;28;19943;-58
2021/06/16 04:30:39;;;;;;;;;;;23.50;57.90;;;;;;5043117;28;20328;-59
2021/06/16 04:33:06;;;;;;;;;;;23.50;57.90;;;;;;5025930;28;19920;-60
2021/06/16 04:35:32;;;;;;;;;;;23.50;58.30;;;;;;5025089;28;20285;-61
2021/06/16 04:37:57;;;;;;;;;;;23.50;58.30;;;;;;5023342;28;19921;-62
2021/06/16 04:40:23;;;;;;;;;;;23.50;58.40;;;;;;5043444;28;20329;-60
2021/06/16 04:42:48;;;;;;;;;;;23.50;58.60;;;;;;5017933;28;19921;-61
2021/06/16 04:45:14;;;;;;;;;;;23.50;58.70;;;;;;5025715;28;20649;-61
2021/06/16 04:47:39;;;;;;;;;;;23.50;59.00;;;;;;5006126;28;19925;-61
2021/06/16 04:50:06;;;;;;;;;;;23.50;58.70;;;;;;5011306;28;19924;-59
2021/06/16 04:52:31;;;;;;;;;;;23.50;59.10;;;;;;5035712;28;19979;-59
2021/06/16 04:54:57;;;;;;;;;;;23.40;59.10;;;;;;5018745;28;20264;-58
2021/06/16 04:57:22;;;;;;;;;;;23.50;59.10;;;;;;5038404;28;19925;-58
2021/06/16 04:59:48;;;;;;;;;;;23.50;59.10;;;;;;5036946;28;19932;-59
2021/06/16 05:02:13;;;;;;;;;;;23.50;59.20;;;;;;5037232;28;19986;-60
2021/06/16 05:04:38;;;;;;;;;;;23.50;59.30;;;;;;5019848;28;20289;-61
2021/06/16 05:07:04;;;;;;;;;;;23.40;59.30;;;;;;5037170;28;19924;-60
2021/06/16 05:09:29;;;;;;;;;;;23.40;59.30;;;;;;5037804;28;19970;-59
2021/06/16 05:11:55;;;;;;;;;;;23.40;59.50;;;;;;5037176;28;19947;-61
2021/06/16 05:14:20;;;;;;;;;;;23.40;59.50;;;;;;5035463;28;19921;-62
2021/06/16 05:16:46;;;;;;;;;;;23.40;59.40;;;;;;5018348;28;19920;-61
2021/06/16 05:19:20;;;;;;;;;;;23.40;59.50;;;;;;5038037;28;19921;-60
2021/06/16 05:21:46;;;;;;;;;;;23.40;59.60;;;;;;5021457;28;19921;-61
2021/06/16 05:24:11;;;;;;;;;;;23.40;59.70;;;;;;5018982;28;19936;-59
2021/06/16 05:26:37;;;;;;;;;;;23.40;59.50;;;;;;5019240;28;19922;-59
2021/06/16 05:29:03;;;;;;;;;;;23.40;59.80;;;;;;5036859;28;20385;-59
2021/06/16 05:31:28;;;;;;;;;;;23.40;60.10;;;;;;5032602;28;20298;-62
2021/06/16 05:33:54;;;;;;;;;;;23.50;60.10;;;;;;5034201;28;19920;-61
2021/06/16 05:36:19;;;;;;;;;;;23.40;60.30;;;;;;5017664;28;19921;-60
2021/06/16 05:38:46;;;;;;;;;;;23.40;59.90;;;;;;5019714;28;19941;-58
2021/06/16 05:41:11;;;;;;;;;;;23.40;60.20;;;;;;5036550;28;19949;-59
2021/06/16 05:43:37;;;;;;;;;;;23.40;60.30;;;;;;5019041;28;19912;-61
2021/06/16 05:46:02;;;;;;;;;;;23.40;60.50;;;;;;5037454;28;19970;-60
2021/06/16 05:48:28;;;;;;;;;;;23.40;60.60;;;;;;5037134;28;19951;-58
2021/06/16 05:50:54;;;;;;;;;;;23.40;60.60;;;;;;5019545;28;20014;-60
2021/06/16 05:53:19;;;;;;;;;;;23.40;60.80;;;;;;5019249;28;20336;-60
2021/06/16 05:55:45;;;;;;;;;;;23.40;61.00;;;;;;5037844;28;20576;-60
2021/06/16 05:58:11;;;;;;;;;;;23.40;61.40;;;;;;5036095;28;19928;-60
2021/06/16 06:00:36;;;;;;;;;;;23.40;61.30;;;;;;5037570;28;19963;-59
2021/06/16 06:03:02;;;;;;;;;;;23.40;61.60;;;;;;5038661;28;19920;-58
2021/06/16 06:05:27;;;;;;;;;;;23.40;61.80;;;;;;5037938;28;20126;-57
2021/06/16 06:07:53;;;;;;;;;;;23.40;61.90;;;;;;5037742;28;20020;-62
2021/06/16 06:10:18;;;;;;;;;;;23.40;61.80;;;;;;5020056;28;20325;-58
2021/06/16 06:12:44;;;;;;;;;;;23.40;61.50;;;;;;5020184;28;19944;-60
2021/06/16 06:15:12;;;;;;;;;;;23.40;61.90;;;;;;5036318;28;19917;-60
2021/06/16 06:17:37;;;;;;;;;;;23.40;62.70;;;;;;5019351;28;19913;-61
2021/06/16 06:20:03;;;;;;;;;;;23.40;62.00;;;;;;5038670;28;19916;-60
2021/06/16 06:22:28;;;;;;;;;;;23.40;62.20;;;;;;5019420;28;19916;-58
2021/06/16 06:24:54;;;;;;;;;;;23.40;62.30;;;;;;5036545;28;21263;-57
2021/06/16 06:27:19;;;;;;;;;;;23.30;62.20;;;;;;5035733;28;20432;-60
2021/06/16 06:29:45;;;;;;;;;;;23.30;62.50;;;;;;5036051;28;20560;-60
2021/06/16 06:32:10;;;;;;;;;;;23.30;62.60;;;;;;5036945;28;19921;-61
2021/06/16 06:34:36;;;;;;;;;;;23.30;62.20;;;;;;5038026;28;20219;-61
2021/06/16 06:37:01;;;;;;;;;;;23.40;61.80;;;;;;5038052;28;20073;-60
2021/06/16 06:39:28;;;;;;;;;;;23.30;62.30;;;;;;5038194;28;20381;-61
2021/06/16 06:41:54;;;;;;;;;;;23.40;62.40;;;;;;5038231;28;20699;-58
2021/06/16 06:44:19;;;;;;;;;;;23.30;62.10;;;;;;5038609;28;19932;-59
2021/06/16 06:46:45;;;;;;;;;;;23.30;62.20;;;;;;5019920;28;20010;-60
2021/06/16 06:49:11;;;;;;;;;;;23.30;62.00;;;;;;5037924;28;20176;-61
2021/06/16 06:51:37;;;;;;;;;;;23.30;61.90;;;;;;5000703;28;20584;-60
2021/06/16 06:54:03;;;;;;;;;;;23.40;62.10;;;;;;5019549;28;19939;-61
2021/06/16 06:56:28;;;;;;;;;;;23.30;62.10;;;;;;5020802;28;20369;-60
2021/06/16 06:58:53;;;;;;;;;;;23.40;61.80;;;;;;5036879;28;19917;-60
2021/06/16 07:01:19;;;;;;;;;;;23.40;61.70;;;;;;5037437;28;19960;-58
2021/06/16 07:03:44;;;;;;;;;;;23.40;61.00;;;;;;5037652;28;20549;-60
2021/06/16 07:06:10;;;;;;;;;;;23.40;60.80;;;;;;5037287;28;19976;-60
2021/06/16 07:08:35;;;;;;;;;;;23.40;60.70;;;;;;5020246;28;19928;-60
2021/06/16 07:11:01;;;;;;;;;;;23.40;60.60;;;;;;5038125;28;19975;-61
2021/06/16 07:13:26;;;;;;;;;;;23.40;60.60;;;;;;5035686;28;19924;-61
2021/06/16 07:15:52;;;;;;;;;;;23.40;60.50;;;;;;5037757;28;20475;-61
2021/06/16 07:18:17;;;;;;;;;;;23.40;60.30;;;;;;5042912;28;19920;-61
2021/06/16 07:20:43;;;;;;;;;;;23.40;60.50;;;;;;5044321;28;19913;-62
2021/06/16 07:23:08;;;;;;;;;;;23.40;60.60;;;;;;5043834;28;20310;-61
2021/06/16 07:25:34;;;;;;;;;;;23.40;60.50;;;;;;5024721;28;19921;-61
2021/06/16 07:27:59;;;;;;;;;;;23.40;60.50;;;;;;5025681;28;19912;-64
2021/06/16 07:30:25;;;;;;;;;;;23.40;60.40;;;;;;5043898;28;19917;-61
2021/06/16 07:32:53;;;;;;;;;;;23.40;60.50;;;;;;5044520;28;20008;-59
2021/06/16 07:35:18;;;;;;;;;;;23.40;60.50;;;;;;5044729;28;19967;-61
2021/06/16 07:37:44;;;;;;;;;;;23.40;60.60;;;;;;5043780;28;20313;-61
2021/06/16 07:40:09;;;;;;;;;;;23.40;60.70;;;;;;5024683;28;19919;-61
2021/06/16 07:42:35;;;;;;;;;;;23.40;60.80;;;;;;5025740;28;19920;-60
2021/06/16 07:45:01;;;;;;;;;;;23.40;60.80;;;;;;5026867;28;19917;-61
2021/06/16 07:47:27;;;;;;;;;;;23.40;60.70;;;;;;5044570;28;19967;-59
2021/06/16 07:49:52;;;;;;;;;;;23.40;60.70;;;;;;5043803;28;19921;-59
2021/06/16 07:52:18;;;;;;;;;;;23.40;60.60;;;;;;5045413;28;19925;-60
2021/06/16 07:54:43;;;;;;;;;;;23.40;60.80;;;;;;5043106;28;19921;-61
2021/06/16 07:57:09;;;;;;;;;;;23.40;60.70;;;;;;5045432;28;20366;-61
2021/06/16 07:59:34;;;;;;;;;;;23.40;61.00;;;;;;5044203;28;19916;-62
2021/06/16 08:02:00;;;;;;;;;;;23.40;61.00;;;;;;5043336;28;19920;-60
2021/06/16 08:04:25;;;;;;;;;;;23.40;61.00;;;;;;5043907;28;19974;-59
2021/06/16 08:06:51;;;;;;;;;;;23.40;61.00;;;;;;5044240;28;20006;-59
2021/06/16 08:09:16;;;;;;;;;;;23.40;60.90;;;;;;5009952;28;19920;-60
2021/06/16 08:11:42;;;;;;;;;;;23.40;60.90;;;;;;5043860;28;19923;-56
2021/06/16 08:14:07;;;;;;;;;;;23.40;61.00;;;;;;5042345;28;19924;-59
2021/06/16 08:16:33;;;;;;;;;;;23.40;61.10;;;;;;5043495;28;20702;-61
2021/06/16 08:18:58;;;;;;;;;;;23.40;61.30;;;;;;5044579;28;19912;-59
2021/06/16 08:21:24;;;;;;;;;;;23.40;61.20;;;;;;5043593;28;19917;-60
2021/06/16 08:23:49;;;;;;;;;;;23.40;61.40;;;;;;5043706;28;19917;-60
2021/06/16 08:26:14;;;;;;;;;;;23.40;61.40;;;;;;5009820;28;19927;-59
2021/06/16 08:28:40;;;;;;;;;;;23.40;61.50;;;;;;5040471;28;20713;-60
2021/06/16 08:31:05;;;;;;;;;;;23.40;61.60;;;;;;5040831;28;19978;-60
2021/06/16 08:33:31;;;;;;;;;;;23.40;62.00;;;;;;5023536;28;19935;-58
2021/06/16 08:35:56;;;;;;;;;;;23.40;62.10;;;;;;5041145;28;19998;-56
2021/06/16 08:38:22;;;;;;;;;;;23.40;62.10;;;;;;5040558;28;19913;-61
2021/06/16 08:40:48;;;;;;;;;;;23.40;62.10;;;;;;5041013;28;20614;-60
2021/06/16 08:43:13;;;;;;;;;;;23.40;62.20;;;;;;5022438;28;19948;-60
2021/06/16 08:45:39;;;;;;;;;;;23.40;62.20;;;;;;5040567;28;20489;-60
2021/06/16 08:48:05;;;;;;;;;;;23.40;62.20;;;;;;5021786;28;20751;-58
2021/06/16 08:50:30;;;;;;;;;;;23.40;62.60;;;;;;5058751;22;20355;-66
2021/06/16 08:52:56;;;;;;;;;;;23.40;62.60;;;;;;5065788;28;19915;-66
2021/06/16 08:55:21;;;;;;;;;;;23.40;62.50;;;;;;5075815;28;20384;-68
2021/06/16 08:57:47;;;;;;;;;;;23.40;62.60;;;;;;5088189;28;19939;-68
2021/06/16 09:00:13;;;;;;;;;;;23.40;62.50;;;;;;5065982;28;20467;-65
2021/06/16 09:02:38;;;;;;;;;;;23.40;62.60;;;;;;5096697;28;19939;-65
2021/06/16 09:05:04;;;;;;;;;;;23.40;62.70;;;;;;5070574;28;19912;-67
2021/06/16 09:07:33;;;;;;;;;;;23.40;62.70;;;;;;5075022;28;19916;-65
2021/06/16 09:10:10;;;;;;;;;;;23.40;62.90;;;;;;5054353;28;19918;-67
2021/06/16 09:12:59;;;;;;;;;;;23.40;63.20;;;;;;5080636;28;19955;-71
2021/06/16 09:15:26;;;;;;;;;;;23.40;63.30;;;;;;5060913;28;20389;-67
2021/06/16 09:18:17;;;;;;;;;;;23.40;63.20;;;;;;5094135;28;19919;-64
2021/06/16 09:20:45;;;;;;;;;;;23.40;63.40;;;;;;5084793;28;19920;-65
2021/06/16 09:23:12;;;;;;;;;;;23.40;63.60;;;;;;5071024;28;20041;-69
2021/06/16 09:25:38;;;;;;;;;;;23.40;64.20;;;;;;5073909;28;19923;-65
2021/06/16 09:28:03;;;;;;;;;;;23.40;63.60;;;;;;5092286;28;20731;-69
2021/06/16 09:30:30;;;;;;;;;;;23.50;63.80;;;;;;5073013;28;19955;-69
2021/06/16 09:32:58;;;;;;;;;;;23.40;63.90;;;;;;5077102;28;20576;-67
2021/06/16 09:35:24;;;;;;;;;;;23.40;63.90;;;;;;5084523;28;19920;-70
2021/06/16 09:37:49;;;;;;;;;;;23.40;64.00;;;;;;5092737;28;19916;-68
2021/06/16 09:40:44;;;;;;;;;;;23.40;64.10;;;;;;5073064;28;20269;-69
2021/06/16 09:43:11;;;;;;;;;;;23.40;64.10;;;;;;5060232;28;19916;-67
2021/06/16 09:45:37;;;;;;;;;;;23.40;64.00;;;;;;5087926;28;19911;-68
2021/06/16 09:48:17;;;;;;;;;;;23.40;64.30;;;;;;5076034;28;19918;-70
2021/06/16 09:50:43;;;;;;;;;;;23.40;64.00;;;;;;5050889;28;731838;-65
2021/06/16 09:53:08;;;;;;;;;;;23.50;64.40;;;;;;5079909;28;20515;-67
2021/06/16 09:55:35;;;;;;;;;;;23.40;64.20;;;;;;5094674;28;19919;-66
2021/06/16 09:58:04;;;;;;;;;;;23.40;64.50;;;;;;5098631;28;19923;-67
2021/06/16 10:00:29;;;;;;;;;;;23.50;64.50;;;;;;5084842;28;19996;-67
2021/06/16 10:03:13;;;;;;;;;;;23.40;64.40;;;;;;5073610;28;20515;-64
2021/06/16 10:05:58;;;;;;;;;;;23.50;64.50;;;;;;5081717;28;19966;-65
2021/06/16 10:08:24;;;;;;;;;;;23.50;64.40;;;;;;5088278;28;20513;-67
2021/06/16 10:10:49;;;;;;;;;;;23.40;64.20;;;;;;5076552;28;19920;-63
2021/06/16 10:13:17;;;;;;;;;;;23.50;64.40;;;;;;5076045;28;20935;-63
2021/06/16 10:15:43;;;;;;;;;;;23.50;64.40;;;;;;5087489;28;19980;-63
2021/06/16 10:18:08;;;;;;;;;;;23.50;64.60;;;;;;5073625;28;20326;-67
2021/06/16 10:20:33;;;;;;;;;;;23.50;64.70;;;;;;5082592;28;19958;-67
2021/06/16 10:22:59;;;;;;;;;;;23.50;65.00;;;;;;5075694;28;19924;-64
2021/06/16 10:25:24;;;;;;;;;;;23.50;64.70;;;;;;5067209;28;19916;-64
2021/06/16 10:27:54;;;;;;;;;;;23.50;64.90;;;;;;5075608;28;20388;-64
2021/06/16 10:30:20;;;;;;;;;;;23.50;65.10;;;;;;5089448;28;20007;-65
2021/06/16 10:32:46;;;;;;;;;;;23.50;65.10;;;;;;5094822;28;19962;-63
2021/06/16 10:35:15;;;;;;;;;;;23.50;65.00;;;;;;5073890;28;19920;-64
2021/06/16 10:37:44;;;;;;;;;;;23.50;65.00;;;;;;5052386;28;19916;-69
2021/06/16 10:40:12;;;;;;;;;;;23.50;65.10;;;;;;5077258;28;19915;-65
2021/06/16 10:42:56;;;;;;;;;;;23.50;65.20;;;;;;5100527;28;20699;-63
2021/06/16 10:45:22;;;;;;;;;;;23.50;66.20;;;;;;5087136;28;19912;-63
2021/06/16 10:47:57;;;;;;;;;;;23.50;65.30;;;;;;5096762;28;20007;-65
2021/06/16 10:50:42;;;;;;;;;;;23.50;65.10;;;;;;5068792;28;19959;-67
2021/06/16 10:53:08;;;;;;;;;;;23.50;65.20;;;;;;5086597;28;19916;-62
2021/06/16 10:55:52;;;;;;;;;;;23.50;64.90;;;;;;5082009;28;19938;-65
2021/06/16 10:58:17;;;;;;;;;;;23.50;64.90;;;;;;5092665;28;19912;-66
2021/06/16 11:00:42;;;;;;;;;;;23.50;65.00;;;;;;5075051;28;19927;-63
2021/06/16 11:03:08;;;;;;;;;;;23.50;64.70;;;;;;5091446;28;19912;-65
2021/06/16 11:05:35;;;;;;;;;;;23.50;64.70;;;;;;5091480;28;19919;-64
2021/06/16 11:08:02;;;;;;;;;;;23.50;64.70;;;;;;5097185;28;19938;-63
2021/06/16 11:11:03;;;;;;;;;;;23.50;64.70;;;;;;5083848;28;19916;-66
2021/06/16 11:13:35;;;;;;;;;;;23.50;64.30;;;;;;5021333;28;20437;-65
2021/06/16 11:16:01;;;;;;;;;;;23.60;64.50;;;;;;5082930;28;19923;-64
2021/06/16 11:18:27;;;;;;;;;;;23.60;64.80;;;;;;5068622;28;19912;-65
2021/06/16 11:20:56;;;;;;;;;;;23.50;64.40;;;;;;5091139;28;19912;-64
2021/06/16 11:23:23;;;;;;;;;;;23.50;64.60;;;;;;5073101;28;20367;-67
2021/06/16 11:25:50;;;;;;;;;;;23.50;64.60;;;;;;5091800;28;20369;-64
2021/06/16 11:28:37;;;;;;;;;;;23.60;64.80;;;;;;5087270;28;19965;-65
2021/06/16 11:31:05;;;;;;;;;;;23.60;64.10;;;;;;5079186;28;19968;-65
2021/06/16 11:33:32;;;;;;;;;;;23.50;63.20;;;;;;5063282;28;20389;-65
2021/06/16 11:35:59;;;;;;;;;;;23.60;64.80;;;;;;5079895;28;19916;-63
2021/06/16 11:38:32;;;;;;;;;;;23.60;64.60;;;;;;5070475;28;19920;-65
2021/06/16 11:40:58;;;;;;;;;;;23.60;65.00;;;;;;5055354;28;19916;-67
2021/06/16 11:43:27;;;;;;;;;;;23.60;65.20;;;;;;5100253;28;20281;-66
2021/06/16 11:45:53;;;;;;;;;;;23.60;65.30;;;;;;5100353;28;20429;-63
2021/06/16 11:48:18;;;;;;;;;;;23.60;65.10;;;;;;5089973;28;19912;-67
2021/06/16 11:50:44;;;;;;;;;;;23.60;65.30;;;;;;5064342;28;20297;-66
2021/06/16 11:53:09;;;;;;;;;;;23.60;65.20;;;;;;5075502;28;19919;-65
2021/06/16 11:55:44;;;;;;;;;;;23.60;64.80;;;;;;5061646;28;19912;-67
2021/06/16 11:58:42;;;;;;;;;;;23.70;65.10;;;;;;5058922;28;19919;-63
2021/06/16 12:01:12;;;;;;;;;;;23.60;65.00;;;;;;5052214;28;20203;-62
2021/06/16 12:03:38;;;;;;;;;;;23.60;64.80;;;;;;5072555;28;19912;-65
2021/06/16 12:06:05;;;;;;;;;;;23.60;64.90;;;;;;5071602;28;20207;-62
2021/06/16 12:08:30;;;;;;;;;;;23.60;65.00;;;;;;5077556;28;20596;-62
2021/06/16 12:10:56;;;;;;;;;;;23.70;64.90;;;;;;5077931;28;19926;-62
2021/06/16 12:13:21;;;;;;;;;;;23.70;64.80;;;;;;5084575;28;19920;-63
2021/06/16 12:15:47;;;;;;;;;;;23.70;64.40;;;;;;5088523;28;20472;-64
2021/06/16 12:18:13;;;;;;;;;;;23.70;64.10;;;;;;5090843;28;19922;-63
2021/06/16 12:20:39;;;;;;;;;;;23.70;64.00;;;;;;5093054;28;20334;-67
2021/06/16 12:23:18;;;;;;;;;;;23.70;64.00;;;;;;5100121;28;19919;-64
2021/06/16 12:25:43;;;;;;;;;;;23.70;64.00;;;;;;5080410;28;20015;-67
2021/06/16 12:28:09;;;;;;;;;;;23.70;64.10;;;;;;5048598;28;20655;-67
2021/06/16 12:30:35;;;;;;;;;;;23.80;64.10;;;;;;5084040;28;19977;-68
2021/06/16 12:35:41;;;;;;;;;;;23.70;64.20;;;;;;5088771;28;20002;-64
2021/06/16 12:38:07;;;;;;;;;;;23.80;64.00;;;;;;5092462;28;19911;-64
2021/06/16 12:40:33;;;;;;;;;;;23.80;64.00;;;;;;5088686;28;20280;-63
2021/06/16 12:42:59;;;;;;;;;;;23.80;63.80;;;;;;5092282;28;19916;-62
2021/06/16 12:45:30;;;;;;;;;;;23.70;63.60;;;;;;5087959;28;20427;-63
2021/06/16 12:47:56;;;;;;;;;;;23.70;63.60;;;;;;5088346;28;19980;-66
2021/06/16 12:50:26;;;;;;;;;;;23.80;64.20;;;;;;5091998;28;19995;-62
2021/06/16 12:52:51;;;;;;;;;;;23.80;63.60;;;;;;5090381;28;20389;-65
2021/06/16 12:55:17;;;;;;;;;;;23.80;63.50;;;;;;5093357;28;19913;-63
2021/06/16 12:57:43;;;;;;;;;;;23.80;63.50;;;;;;5103433;28;20478;-66
2021/06/16 13:00:12;;;;;;;;;;;23.80;63.60;;;;;;5095968;28;20683;-62
2021/06/16 13:02:38;;;;;;;;;;;23.80;63.60;;;;;;5074746;28;19964;-63
2021/06/16 13:05:04;;;;;;;;;;;23.80;63.80;;;;;;5073854;28;20337;-63
2021/06/16 13:07:42;;;;;;;;;;;23.80;63.80;;;;;;5078772;28;19961;-62
2021/06/16 13:10:14;;;;;;;;;;;23.80;63.70;;;;;;5102678;28;19919;-64
2021/06/16 13:12:50;;;;;;;;;;;23.80;63.80;;;;;;5103654;28;20350;-62
2021/06/16 13:15:15;;;;;;;;;;;23.80;63.80;;;;;;5101791;28;19920;-68
2021/06/16 13:17:44;;;;;;;;;;;23.80;63.60;;;;;;5095320;28;20404;-66
2021/06/16 13:20:10;;;;;;;;;;;23.80;63.40;;;;;;5089508;28;20324;-63
2021/06/16 13:22:36;;;;;;;;;;;23.90;63.30;;;;;;5089791;28;19912;-66
2021/06/16 13:25:02;;;;;;;;;;;23.90;63.20;;;;;;5103599;28;20558;-64
2021/06/16 13:27:28;;;;;;;;;;;23.90;63.30;;;;;;5073863;28;19912;-63
2021/06/16 13:30:00;;;;;;;;;;;23.90;63.30;;;;;;5091122;28;20316;-65
2021/06/16 13:32:36;;;;;;;;;;;23.90;63.50;;;;;;5064780;28;19924;-67
2021/06/16 13:35:02;;;;;;;;;;;23.90;63.80;;;;;;5093857;28;19915;-66
2021/06/16 13:37:27;;;;;;;;;;;23.90;63.70;;;;;;5092436;28;19915;-64
2021/06/16 13:39:53;;;;;;;;;;;23.90;63.80;;;;;;5090668;28;19932;-64
2021/06/16 13:42:19;;;;;;;;;;;23.90;63.90;;;;;;5095346;28;20376;-64
2021/06/16 13:44:44;;;;;;;;;;;23.90;63.80;;;;;;5073094;28;19999;-65
2021/06/16 13:47:10;;;;;;;;;;;23.90;63.80;;;;;;5085713;28;20369;-65
2021/06/16 13:49:35;;;;;;;;;;;23.90;63.70;;;;;;5074056;28;19912;-65
2021/06/16 13:52:01;;;;;;;;;;;23.90;64.30;;;;;;5099092;28;19928;-63
2021/06/16 13:54:26;;;;;;;;;;;23.90;63.50;;;;;;5082202;28;20003;-63
2021/06/16 13:56:51;;;;;;;;;;;23.90;63.50;;;;;;5091063;28;20384;-66
2021/06/16 13:59:17;;;;;;;;;;;23.90;63.30;;;;;;5097693;28;20108;-65
2021/06/16 14:01:42;;;;;;;;;;;23.90;63.30;;;;;;5082824;28;19920;-66
2021/06/16 14:04:09;;;;;;;;;;;23.90;63.10;;;;;;5090918;28;19959;-66
2021/06/16 14:06:35;;;;;;;;;;;23.90;63.00;;;;;;5090403;28;20168;-63
2021/06/16 14:09:03;;;;;;;;;;;23.90;62.90;;;;;;5082096;28;20007;-64
2021/06/16 14:11:28;;;;;;;;;;;23.90;62.90;;;;;;5094173;28;20003;-63
2021/06/16 14:13:54;;;;;;;;;;;23.90;62.90;;;;;;5082442;28;19924;-67
2021/06/16 14:16:20;;;;;;;;;;;23.90;63.00;;;;;;5089465;28;19912;-65
2021/06/16 14:18:45;;;;;;;;;;;24.00;63.00;;;;;;5099383;28;19912;-63